Altamont, Illinois
Current Conditions -  °F | °C
As of 6:15 PM on Sunday 21 Dec 2014 (Local Time) from K1H2 Reporting Station
Clear Clear  
Wind Chill: 28°   Ceiling: Unl
Heat Index: 35°   Visibility: 10mi
Dew Point: 28°   Wind: 8mph
Humidity: 77%   Direction: 100°E
Pressure: 30.09"   Gusts: NA
Location:  39.06°N, 88.75°W
Report Text: K1H2 220015Z AUTO 10007KT 10SM CLR 02/M02 A3009 RMK AO2 T00151022
Loading
Personal Weather Stations






























Interactive Weather Map New forecast layout! Learn more

10-Day Weather Forecast

Advertisements
Track Severe Weather on mobile